North Lancaster, Massachusetts
Current Conditions -  °F | °C
As of 12:52 PM on Thursday 23 Oct 2014 (Local Time) from KFIT Reporting Station
Overcast Overcast  
Wind Chill: 52°   Ceiling: 1100
Heat Index: 52°   Visibility: 10mi
Dew Point: 48°   Wind: 9mph
Humidity: 86%   Direction: 360°N
Pressure: 29.69"   Gusts: NA
Location:  42.4719°N, 71.6906°W
Report Text: KFIT 231652Z AUTO 36008KT 10SM OVC011 11/09 A2969 RMK AO2 RAB1557E44 SLP054 P0000 T01110089
Loading
Personal Weather Stations






























Interactive Weather Map
Tropical Storm Tracking
New forecast layout! Learn more

10-Day Weather Forecast

Advertisements
Track Severe Weather on mobile